Latest Weather Observations for Strahan

IDT60801

Issued at 6:51 am EST Wednesday 8 April 2020 (issued every 10 minutes, with the page automatically refreshed every 10 minutes)

About weather observations | Map of weather stations | Latest weather observations for TAS | Other Formats
Station Details ID: 097072 Name: STRAHAN AERODROME Lat: -42.16 Lon: 145.29 Height: 21.0 m
Data from the previous 72 hours. | See also: Recent months at Strahan
Date/Time
EST
Temp
°C
App
Temp
°C
Dew
Point
°C
Rel
Hum
%
Delta-T
°C
Wind Press
QNH
hPa
Press
MSL
hPa
Rain since
9am
mm
Dir  Spd
km/h
Gust
km/h
Spd
kts
Gust
kts
08/06:30am 7.7 4.9 7.1 96 0.3 SSE 11 15 6 8 1026.4 1026.4 1.6
08/06:00am 7.4 4.6 6.8 96 0.3 SE 11 13 6 7 1026.0 1026.0 1.6
08/05:30am 7.9 4.8 7.3 96 0.3 SE 13 19 7 10 1025.8 1025.8 1.6
08/05:00am 8.4 5.0 7.8 96 0.3 SE 15 20 8 11 1025.5 1025.5 1.6
08/04:42am 8.6 5.3 8.0 96 0.3 SE 15 20 8 11 1025.3 1025.3 1.6
08/04:30am 8.6 5.7 8.0 96 0.3 SE 13 19 7 10 1025.1 1025.1 1.6
08/04:00am 9.0 6.9 8.4 96 0.3 SE 9 13 5 7 1025.1 1025.1 1.6
08/03:30am 8.6 5.7 8.0 96 0.3 ESE 13 17 7 9 1024.7 1024.7 1.6
08/03:00am 9.0 6.2 8.4 96 0.3 SE 13 15 7 8 1024.7 1024.7 1.6
08/02:53am 9.1 6.3 8.5 96 0.3 SE 13 15 7 8 1024.6 1024.6 1.6
08/02:30am 8.8 6.3 8.2 96 0.3 SE 11 15 6 8 1024.7 1024.7 1.6
08/02:00am 9.3 7.3 8.7 96 0.3 SE 9 11 5 6 1024.5 1024.5 1.6
08/01:30am 10.0 8.2 9.4 96 0.3 S 9 11 5 6 1024.4 1024.4 1.6
08/01:00am 10.4 8.7 9.8 96 0.3 SSE 9 13 5 7 1024.3 1024.3 1.6
08/12:31am 10.6 7.8 10.0 96 0.3 SE 15 22 8 12 1024.3 1024.3 1.6
08/12:30am 10.6 7.8 10.0 96 0.3 SE 15 22 8 12 1024.3 1024.3 1.6
08/12:00am 10.7 8.3 10.2 97 0.3 SE 13 20 7 11 1024.3 1024.3 1.6
 
Date/Time
EST
Temp
°C
App
Temp
°C
Dew
Point
°C
Rel
Hum
%
Delta-T
°C
Wind Press
QNH
hPa
Press
MSL
hPa
Rain since
9am
mm
Dir  Spd
km/h
Gust
km/h
Spd
kts
Gust
kts
07/11:57pm 10.7 8.3 10.2 97 0.3 SE 13 20 7 11 1024.4 1024.4 1.6
07/11:34pm 10.8 8.8 10.3 97 0.3 SSE 11 13 6 7 1024.3 1024.3 1.2
07/11:30pm 10.8 8.8 10.3 97 0.3 SE 11 15 6 8 1024.3 1024.3 1.2
07/11:25pm 10.7 8.3 10.2 97 0.3 SE 13 15 7 8 1024.2 1024.2 1.2
07/11:23pm 10.7 8.3 10.2 97 0.3 SE 13 15 7 8 1024.2 1024.2 1.2
07/11:00pm 10.8 9.2 10.3 97 0.3 SE 9 13 5 7 1024.1 1024.1 1.2
07/10:53pm 10.8 8.5 10.3 97 0.3 SE 13 17 7 9 1024.1 1024.1 1.0
07/10:30pm 11.0 9.5 10.5 97 0.3 SE 9 13 5 7 1024.2 1024.2 1.0
07/10:09pm 11.0 9.5 10.4 96 0.3 ESE 9 11 5 6 1024.1 1024.1 1.0
07/10:00pm 11.1 9.6 10.5 96 0.3 SE 9 11 5 6 1024.0 1024.0 0.8
07/09:48pm 11.1 9.2 10.5 96 0.3 SE 11 19 6 10 1024.1 1024.1 0.8
07/09:30pm 11.1 10.0 10.5 96 0.3 S 7 11 4 6 1024.0 1024.0 0.6
07/09:02pm 11.2 9.7 10.6 96 0.3 SSW 9 13 5 7 1023.8 1023.8 0.4
07/09:00pm 11.2 9.7 10.6 96 0.3 SSW 9 13 5 7 1023.8 1023.8 0.4
07/08:44pm 11.4 9.9 10.6 95 0.4 S 9 13 5 7 1023.7 1023.7 0.2
07/08:30pm 11.3 9.8 10.4 94 0.5 S 9 13 5 7 1023.5 1023.5 0.0
07/08:00pm 11.0 11.1 10.1 94 0.5 CALM 0 6 0 3 1023.4 1023.4 0.0
07/07:30pm 10.8 9.7 9.9 94 0.5 SSW 6 7 3 4 1023.2 1023.2 0.0
07/07:00pm 10.7 9.3 9.6 93 0.6 SSW 7 7 4 4 1022.9 1022.9 0.0
07/06:30pm 10.7 9.3 9.5 92 0.6 SW 7 9 4 5 1022.7 1022.7 0.0
07/06:00pm 11.1 9.7 9.5 90 0.8 SW 7 9 4 5 1022.5 1022.5 0.0
07/05:30pm 12.0 10.4 10.2 89 0.9 SW 9 15 5 8 1022.3 1022.3 0.0
07/05:00pm 12.7 11.7 10.9 89 0.9 NW 7 9 4 5 1022.2 1022.2 0.0
07/04:30pm 12.7 11.8 11.3 91 0.7 W 7 13 4 7 1022.3 1022.3 0.0
07/04:09pm 12.9 11.7 11.6 92 0.7 W 9 11 5 6 1022.4 1022.4 0.0
07/04:00pm 12.6 10.8 11.0 90 0.8 WSW 11 15 6 8 1022.4 1022.4 0.0
07/03:49pm 12.9 10.6 10.4 85 1.3 WSW 13 19 7 10 1022.5 1022.5 0.0
07/03:30pm 13.7 12.0 9.9 78 2.0 WSW 9 17 5 9 1022.5 1022.5 0.0
07/03:13pm 14.1 12.1 10.3 78 2.0 SW 11 19 6 10 1022.6 1022.6 0.0
07/03:00pm 14.5 12.3 10.7 78 2.0 SW 13 17 7 9 1022.6 1022.6 0.0
07/02:30pm 14.3 11.5 10.1 76 2.2 WSW 15 20 8 11 1022.7 1022.7 0.0
07/02:00pm 14.0 12.9 10.6 80 1.8 WNW 7 13 4 7 1022.9 1022.9 0.0
07/01:30pm 13.3 10.1 9.9 80 1.7 W 17 20 9 11 1023.3 1023.3 0.0
07/01:27pm 13.5 10.4 10.3 81 1.7 W 17 20 9 11 1023.3 1023.3 0.0
07/01:00pm 14.3 11.7 9.5 73 2.5 NW 13 20 7 11 1023.5 1023.5 0.0
07/12:30pm 14.6 12.5 9.6 72 2.6 W 11 19 6 10 1023.8 1023.8 0.0
07/12:00pm 14.1 12.3 9.5 74 2.3 NW 9 17 5 9 1024.0 1024.0 0.0
07/11:30am 13.4 10.6 8.5 72 2.5 W 13 20 7 11 1024.2 1024.2 0.0
07/11:00am 14.1 12.1 8.5 69 2.8 NW 9 15 5 8 1024.1 1024.1 0.0
07/10:30am 13.3 11.9 8.8 74 2.3 SSE 6 9 3 5 1024.2 1024.2 0.0
07/10:00am 12.2 9.9 7.5 73 2.3 W 9 11 5 6 1024.3 1024.3 0.0
07/09:30am 12.3 11.2 8.6 78 1.8 NE 4 7 2 4 1024.1 1024.1 0.0
07/09:00am 11.6 9.6 8.8 83 1.4 ENE 9 13 5 7 1024.1 1024.1 0.2
07/08:30am 10.6 9.0 8.7 88 0.9 ENE 7 9 4 5 1024.0 1024.0 0.2
07/08:00am 10.0 8.7 9.1 94 0.4 ESE 6 11 3 6 1023.9 1023.9 0.2
07/07:30am 9.3 8.2 8.4 94 0.4 E 4 9 2 5 1023.6 1023.6 0.2
07/07:00am 8.9 7.1 7.8 93 0.5 NE 7 9 4 5 1023.3 1023.3 0.2
07/06:30am 8.9 7.0 7.7 92 0.6 NNE 7 9 4 5 1023.0 1023.0 0.2
07/06:00am 9.0 7.2 8.1 94 0.4 N 7 9 4 5 1022.9 1022.9 0.2
07/05:30am 9.0 6.9 8.2 95 0.4 NNE 9 13 5 7 1022.8 1022.8 0.2
07/05:00am 8.8 7.2 8.0 95 0.4 NE 6 7 3 4 1022.7 1022.7 0.2
07/04:30am 8.9 7.3 8.1 95 0.4 NE 6 7 3 4 1022.6 1022.6 0.2
07/04:00am 8.9 7.3 8.0 94 0.4 NE 6 7 3 4 1022.5 1022.5 0.2
07/03:30am 9.1 7.6 8.3 95 0.4 NE 6 7 3 4 1022.5 1022.5 0.2
07/03:00am 9.2 7.7 8.4 95 0.4 NE 6 7 3 4 1022.7 1022.7 0.2
07/02:30am 9.1 7.4 8.5 96 0.3 NE 7 7 4 4 1022.8 1022.8 0.2
07/02:00am 9.3 7.7 8.7 96 0.3 ENE 7 7 4 4 1022.9 1022.9 0.2
07/01:30am 9.3 7.8 8.5 95 0.4 NE 6 9 3 5 1023.0 1023.0 0.2
07/01:00am 9.4 7.8 8.8 96 0.3 NNE 7 9 4 5 1023.0 1023.0 0.2
07/12:30am 9.4 7.4 8.5 94 0.4 N 9 11 5 6 1022.9 1022.9 0.2
07/12:00am 9.7 7.6 8.3 91 0.7 NNE 9 11 5 6 1023.0 1023.0 0.2
 
Date/Time
EST
Temp
°C
App
Temp
°C
Dew
Point
°C
Rel
Hum
%
Delta-T
°C
Wind Press
QNH
hPa
Press
MSL
hPa
Rain since
9am
mm
Dir  Spd
km/h
Gust
km/h
Spd
kts
Gust
kts
06/11:30pm 10.0 8.3 8.4 90 0.8 SSE 7 13 4 7 1023.0 1023.0 0.2
06/11:00pm 10.1 8.2 7.5 84 1.2 SW 7 9 4 5 1023.1 1023.1 0.0
06/10:30pm 10.5 8.0 6.6 77 1.8 SSE 9 13 5 7 1022.9 1022.9 0.0
06/10:00pm 10.5 7.0 7.2 80 1.6 SW 15 20 8 11 1023.0 1023.0 0.0
06/09:30pm 10.6 6.7 7.3 80 1.6 SW 17 22 9 12 1022.8 1022.8 0.0
06/09:00pm 10.7 7.7 7.6 81 1.5 SSW 13 19 7 10 1022.5 1022.5 0.0
06/08:30pm 10.6 8.6 7.3 80 1.6 SSW 7 11 4 6 1022.3 1022.3 0.0
06/08:00pm 10.9 8.3 7.8 81 1.5 SW 11 15 6 8 1022.2 1022.2 0.0
06/07:30pm 10.9 7.5 7.8 81 1.5 SW 15 20 8 11 1022.0 1022.0 0.0
06/07:00pm 10.8 8.4 7.1 78 1.8 SW 9 15 5 8 1021.8 1021.8 0.0
06/06:30pm 10.9 8.5 7.2 78 1.8 SW 9 11 5 6 1021.5 1021.5 0.0
06/06:00pm 11.0 8.3 7.3 78 1.8 WSW 11 20 6 11 1021.2 1021.2 0.0
06/05:30pm 11.5 9.2 7.4 76 2.0 SW 9 11 5 6 1021.1 1021.1 0.0
06/05:00pm 11.8 9.4 6.9 72 2.3 SW 9 13 5 7 1021.0 1021.0 0.0
06/04:30pm 12.0 8.4 6.7 70 2.5 WSW 15 20 8 11 1020.9 1020.9 0.0
06/04:00pm 12.2 8.3 6.9 70 2.5 SW 17 24 9 13 1020.8 1020.8 0.0
06/03:30pm 13.0 9.5 7.2 68 2.8 SW 15 22 8 12 1020.7 1020.7 0.0
06/03:00pm 13.6 10.0 6.9 64 3.2 SW 15 20 8 11 1020.4 1020.4 0.0
06/02:30pm 12.9 8.5 6.7 66 3.0 WSW 19 26 10 14 1020.4 1020.4 0.0
06/02:00pm 13.0 8.8 5.7 61 3.4 W 17 20 9 11 1020.1 1020.1 0.0
06/01:30pm 13.2 9.8 6.1 62 3.4 SW 13 22 7 12 1019.9 1019.9 0.0
06/01:00pm 12.8 8.6 5.9 63 3.2 SW 17 22 9 12 1020.0 1020.0 0.0
06/12:30pm 12.4 8.1 5.3 62 3.3 SW 17 24 9 13 1020.0 1020.0 0.0
06/12:00pm 12.6 9.1 7.1 69 2.6 SW 15 20 8 11 1019.8 1019.8 0.0
06/11:30am 11.9 7.9 6.8 71 2.4 SW 17 24 9 13 1019.6 1019.6 0.0
06/11:00am 11.8 7.4 7.3 74 2.2 SW 20 28 11 15 1019.3 1019.3 0.0
06/10:30am 11.9 8.6 8.2 78 1.8 SSW 15 20 8 11 1018.9 1018.9 0.0
06/10:00am 10.8 8.8 8.6 86 1.1 SW 9 13 5 7 1018.6 1018.6 0.0
06/09:30am 10.7 8.1 9.5 92 0.6 SSW 13 22 7 12 1018.4 1018.4 0.0
06/09:12am 10.4 7.5 9.8 96 0.3 SW 15 19 8 10 1018.2 1018.2 0.0
06/09:00am 9.9 6.0 9.3 96 0.3 WSW 20 26 11 14 1018.1 1018.1 5.8
06/08:42am 10.1 8.2 9.2 94 0.4 SW 9 19 5 10 1018.0 1018.0 5.6
06/08:30am 10.1 9.9 9.2 94 0.4 CALM 0 0 0 0 1017.5 1017.5 5.0
06/08:00am 9.0 7.3 8.2 95 0.4 SW 7 9 4 5 1017.1 1017.1 5.0
06/07:30am 9.6 4.7 8.5 93 0.5 SW 24 35 13 19 1016.7 1016.7 5.0
06/07:00am 8.3 5.7 6.3 87 0.9 SSW 9 11 5 6 1015.8 1015.8 5.0
06/06:30am 9.0 6.6 7.0 87 0.9 WSW 9 13 5 7 1015.2 1015.3 5.0
06/06:22am 9.0 6.0 7.5 90 0.7 WNW 13 20 7 11 1015.2 1015.3 5.0
06/06:08am 9.2 3.8 8.0 92 0.6 WSW 26 43 14 23 1015.2 1015.3 4.8
06/06:00am 9.9 5.6 8.0 88 0.9 WSW 20 43 11 23 1015.0 1015.1 4.8
06/05:30am 8.9 5.4 7.0 88 0.9 WSW 15 28 8 15 1014.5 1014.5 4.8
06/05:00am 9.0 4.2 7.5 90 0.7 SW 22 30 12 16 1014.1 1014.1 4.8
06/04:30am 8.9 7.2 7.5 91 0.7 WSW 6 7 3 4 1013.6 1013.6 4.8
06/04:00am 8.8 4.5 7.1 89 0.8 WSW 19 24 10 13 1013.3 1013.3 4.8
06/03:47am 8.8 6.1 7.3 90 0.7 WSW 11 43 6 23 1013.2 1013.2 4.4
06/03:30am 8.6 6.8 7.1 90 0.7 SW 6 9 3 5 1012.8 1012.8 4.4
06/03:00am 9.8 5.7 6.3 79 1.6 WSW 17 24 9 13 1012.4 1012.4 4.0
06/02:30am 9.9 4.8 6.1 77 1.8 WSW 22 32 12 17 1012.2 1012.2 4.0
06/02:00am 9.3 5.7 6.6 83 1.3 WSW 15 20 8 11 1011.8 1011.8 4.0
06/01:30am 8.3 5.7 6.1 86 1.0 SSW 9 15 5 8 1011.5 1011.5 3.6
06/01:00am 9.0 3.6 6.4 84 1.2 SW 24 39 13 21 1011.2 1011.2 3.6
06/12:30am 9.6 3.2 5.2 74 2.0 WSW 28 35 15 19 1010.8 1010.8 3.6
06/12:00am 9.5 4.0 5.9 78 1.7 WSW 24 39 13 21 1010.4 1010.4 3.6
 
Date/Time
EST
Temp
°C
App
Temp
°C
Dew
Point
°C
Rel
Hum
%
Delta-T
°C
Wind Press
QNH
hPa
Press
MSL
hPa
Rain since
9am
mm
Dir  Spd
km/h
Gust
km/h
Spd
kts
Gust
kts
05/11:30pm 8.6 3.0 5.5 81 1.4 WSW 24 35 13 19 1010.2 1010.2 3.6
05/11:05pm 9.5 3.2 5.7 77 1.7 WSW 28 46 15 25 1009.9 1009.9 3.4
05/11:00pm 8.8 3.9 5.0 77 1.7 WSW 20 37 11 20 1009.8 1009.8 3.4
05/10:30pm 8.4 4.0 6.5 88 0.9 SW 19 30 10 16 1009.8 1009.8 3.4
05/10:00pm 9.2 4.1 4.2 71 2.2 WSW 20 32 11 17 1009.3 1009.3 3.2
05/09:30pm 9.1 3.2 4.1 71 2.2 WSW 24 33 13 18 1009.0 1009.0 3.2
05/09:00pm 8.1 3.7 4.5 78 1.6 WSW 17 35 9 19 1008.6 1008.6 3.2
05/08:30pm 9.1 4.0 4.1 71 2.2 WSW 20 43 11 23 1008.0 1008.0 3.2
05/08:00pm 8.5 2.9 3.4 70 2.2 WSW 22 28 12 15 1007.3 1007.3 3.2
05/07:30pm 8.3 3.8 4.1 75 1.8 WSW 17 28 9 15 1006.8 1006.8 3.2
05/07:00pm 7.3 3.6 4.4 82 1.3 SW 13 26 7 14 1006.2 1006.2 3.2
05/06:30pm 6.8 2.4 4.6 86 1.0 SSW 17 26 9 14 1005.6 1005.6 3.2
05/06:00pm 8.4 3.3 4.0 74 1.9 WSW 20 30 11 16 1004.7 1004.7 3.0
05/05:30pm 8.5 3.9 5.6 82 1.3 W 19 26 10 14 1004.1 1004.1 3.0
05/05:00pm 7.6 1.6 5.4 86 1.0 WSW 26 41 14 22 1003.5 1003.5 3.0
05/04:53pm 7.7 1.3 5.2 84 1.1 WSW 28 50 15 27 1003.4 1003.4 3.0
05/04:50pm 8.1 2.5 5.4 83 1.2 W 24 50 13 27 1003.2 1003.2 2.8
05/04:30pm 8.3 5.9 6.8 90 0.7 NW 9 15 5 8 1002.5 1002.5 2.6
05/04:00pm 7.9 2.7 5.4 84 1.1 SSW 22 35 12 19 1002.4 1002.4 2.4
05/03:30pm 9.2 4.2 4.8 74 2.0 WSW 20 30 11 16 1001.8 1001.8 2.0
05/03:00pm 10.1 5.0 6.1 76 1.9 WSW 22 32 12 17 1001.6 1001.6 2.0
05/02:30pm 9.7 5.1 8.0 89 0.8 SW 22 35 12 19 1001.2 1001.2 2.0
05/02:00pm 7.7 0.6 5.5 86 1.0 WNW 32 57 17 31 1000.7 1000.7 1.6
05/01:55pm 7.8 1.6 4.4 79 1.5 W 26 57 14 31 1000.6 1000.6 1.4
05/01:30pm 9.2 3.6 5.2 76 1.8 WSW 24 37 13 20 999.8 999.8 1.0
05/01:00pm 10.9 3.9 7.0 77 1.9 SW 33 50 18 27 999.8 999.8 1.0
05/12:55pm 10.8 4.3 4.7 66 2.8 WSW 28 50 15 27 999.7 999.7 1.0
05/12:30pm 12.2 6.1 4.9 61 3.3 WSW 26 41 14 22 999.4 999.4 1.0
05/12:00pm 11.6 6.0 5.3 65 2.9 WSW 24 32 13 17 999.3 999.3 1.0
05/11:30am 12.2 8.0 7.3 72 2.4 SW 19 28 10 15 999.0 999.0 1.0
05/11:00am 10.4 4.8 5.6 72 2.2 SW 24 33 13 18 998.7 998.7 1.0
05/10:30am 8.2 5.8 7.1 93 0.5 S 9 20 5 11 998.3 998.3 1.0
05/10:00am 7.4 4.5 6.3 93 0.5 NE 11 17 6 9 997.3 997.3 0.0
05/09:30am 8.0 5.7 7.4 96 0.3 NE 9 15 5 8 996.9 996.9 0.0
05/09:00am 6.3 3.2 5.7 96 0.3 NNE 11 15 6 8 996.8 996.8 8.8
05/08:30am 5.8 2.6 5.2 96 0.3 NNE 11 15 6 8 996.1 996.1 8.4
05/08:00am 5.4 2.5 4.8 96 0.3 NE 9 15 5 8 995.7 995.7 8.4
05/07:30am 5.3 2.4 4.7 96 0.3 NNE 9 13 5 7 995.6 995.6 8.0
05/07:00am 5.3 2.0 4.7 96 0.3 N 11 15 6 8 995.2 995.2 8.0

Other formats

Comma delimited format used in spreadsheet applications
http://www.bom.gov.au/fwo/IDT60801/IDT60801.94956.axf

JavaScript Object Notation format (JSON) in row-major order
http://www.bom.gov.au/fwo/IDT60801/IDT60801.94956.json

Data quality

Most of these data are generated automatically and are frequently updated. Quality checks on data are not normally performed. It is possible for incorrect values to appear. Refer to information at About Latest Weather Observations and please check the disclaimer before using these data.